ROMMA est une association bénévole à but non lucratif. Votre soutien est indispensable : ADHERER à ROMMA ou FAIRE un DON

Die - (26, Drôme)

Diois (400 m)   Longitude: 5° 21' 55"E   Latitude: 44° 45' 16"N Station partenaire n°159
 

Détail journalier du     <<     >>

Température Precipitation Humidité Pression Vent Dir Rafale Dir. rafale Ensol.
Heure (°C) (mm) (%) (hPa) (km/h) (km/h) (min)
01:00 8.106810306NO16NO0
02:00 7.606810305N15NO0
03:00 6.407010305NNO23NNO0
04:00 6.707110305NNE15NNO0
05:00 7.706810306ONO19N0
06:00 2.008510303SE13ESE0
07:00 1.308810302SE10SE0
08:00 0.208910312S8E0
09:00 0.109010312SSE6SSO0
10:00 2.008810321S6SSO40
11:00 5.907710322SSE6SSO60
12:00 8.107410311OSO6OSO60
13:00 10.006610313NNE15ONO60
14:00 10.206610308ONO15ONO60
15:00 10.206710307O16O60
16:00 8.307310305NO11ONO0
17:00 6.907710307NNO18ONO0
18:00 5.308310305NNO15NO0
19:00 2.608410303ONO11N0
20:00 0.7092103105S0
21:00 -0.2092103103S0
22:00 -0.7094103102S0
23:00 -1.3094103102S0
minuit -1.4094103202S0

Graphique du 11-01-2020

 

Serveur OMMA